createdAt,value
2019-03-11T00:02:56.483Z,89.87
2019-03-11T00:09:01.152Z,88.62
2019-03-11T00:15:08.830Z,87.96
2019-03-11T00:21:13.422Z,87.44
2019-03-11T00:27:18.353Z,86.26
2019-03-11T00:33:22.993Z,85.27
2019-03-11T00:39:27.947Z,84.82
2019-03-11T00:45:32.937Z,82.43
2019-03-11T00:51:37.533Z,82.64
2019-03-11T00:57:42.375Z,83.60
2019-03-11T01:03:47.813Z,84.85
2019-03-11T01:09:52.378Z,85.20
2019-03-11T01:15:57.044Z,86.04
2019-03-11T01:22:01.743Z,86.13
2019-03-11T01:28:06.459Z,86.43
2019-03-11T01:34:11.247Z,86.14
2019-03-11T01:40:18.234Z,85.54
2019-03-11T01:46:22.863Z,86.53
2019-03-11T01:52:27.524Z,86.64
2019-03-11T01:58:32.065Z,86.87
2019-03-11T02:04:36.701Z,87.52
2019-03-11T02:10:41.346Z,87.54
2019-03-11T02:16:47.297Z,88.09
2019-03-11T02:22:51.942Z,88.25
2019-03-11T02:28:56.508Z,87.28
2019-03-11T02:35:01.194Z,87.30
2019-03-11T02:41:06.018Z,87.18
2019-03-11T02:47:10.660Z,88.20
2019-03-11T02:53:15.969Z,87.42
2019-03-11T02:59:20.937Z,89.50
2019-03-11T03:05:32.699Z,91.91
2019-03-11T03:11:37.259Z,93.40
2019-03-11T03:17:41.991Z,93.95
2019-03-11T03:23:47.011Z,94.35
2019-03-11T03:29:52.049Z,93.94
2019-03-11T03:35:56.674Z,94.55
2019-03-11T03:42:01.590Z,95.84
2019-03-11T03:48:06.605Z,97.93
2019-03-11T03:54:11.402Z,100.00
2019-03-11T04:00:17.331Z,100.00
2019-03-11T04:06:22.164Z,100.00
2019-03-11T04:12:26.986Z,100.00
2019-03-11T04:18:53.652Z,100.00
2019-03-11T04:24:58.407Z,100.00
2019-03-11T04:31:03.701Z,100.00
2019-03-11T04:37:08.515Z,100.00
2019-03-11T04:43:13.604Z,100.00
2019-03-11T04:49:20.371Z,99.67
2019-03-11T04:55:25.144Z,99.30
2019-03-11T05:01:30.044Z,97.73
2019-03-11T05:07:34.686Z,98.25
2019-03-11T05:13:39.467Z,96.98
2019-03-11T05:19:44.961Z,97.40
2019-03-11T05:25:50.231Z,97.27
2019-03-11T05:31:54.787Z,98.33
2019-03-11T05:37:59.488Z,97.48
2019-03-11T05:44:04.557Z,96.74
2019-03-11T05:50:14.443Z,96.38
2019-03-11T05:56:19.631Z,95.75
2019-03-11T06:02:24.318Z,95.19
2019-03-11T06:08:29.056Z,95.22
2019-03-11T06:14:33.987Z,94.22
2019-03-11T06:20:40.267Z,93.41
2019-03-11T06:26:45.491Z,90.62
2019-03-11T06:32:50.447Z,91.38
2019-03-11T06:39:05.473Z,90.85
2019-03-11T06:45:01.700Z,89.93
2019-03-11T06:51:06.463Z,88.35
2019-03-11T06:57:12.768Z,89.75
2019-03-11T07:03:18.660Z,88.83
2019-03-11T07:09:23.448Z,89.64
2019-03-11T07:15:28.294Z,88.37
2019-03-11T07:21:32.979Z,87.19
2019-03-11T07:27:37.706Z,88.40
2019-03-11T07:33:42.407Z,88.54
2019-03-11T07:39:47.342Z,89.81
2019-03-11T07:45:52.138Z,89.50
2019-03-11T07:51:56.898Z,89.59
2019-03-11T07:58:01.617Z,90.29
2019-03-11T08:04:06.332Z,90.41
2019-03-11T08:10:15.818Z,88.43
2019-03-11T08:16:20.452Z,87.73
2019-03-11T08:22:25.003Z,87.44
2019-03-11T08:28:29.567Z,87.72
2019-03-11T08:34:34.450Z,86.18
2019-03-11T08:40:39.022Z,88.59
2019-03-11T08:46:45.659Z,87.81
2019-03-11T08:52:50.363Z,83.87
2019-03-11T08:58:55.256Z,84.60
2019-03-11T09:05:00.366Z,86.40
2019-03-11T09:11:05.430Z,86.74
2019-03-11T09:17:10.014Z,87.37
2019-03-11T09:23:15.180Z,86.51
2019-03-11T09:29:20.652Z,84.15
2019-03-11T09:35:25.403Z,82.64
2019-03-11T09:41:30.436Z,83.75
2019-03-11T09:47:35.304Z,84.09
2019-03-11T09:53:39.996Z,83.89
2019-03-11T09:59:45.011Z,82.33
2019-03-11T10:05:49.855Z,81.74
2019-03-11T10:11:54.731Z,82.15
2019-03-11T10:17:59.372Z,84.23
2019-03-11T10:24:04.016Z,86.41
2019-03-11T10:30:16.473Z,88.20
2019-03-11T10:36:21.727Z,90.51
2019-03-11T10:42:26.418Z,90.45
2019-03-11T10:48:37.035Z,92.30
2019-03-11T10:54:37.396Z,91.01
2019-03-11T11:00:42.257Z,91.33
2019-03-11T11:06:47.558Z,90.83
2019-03-11T11:12:52.578Z,89.58
2019-03-11T11:18:57.158Z,90.07
2019-03-11T11:25:01.846Z,90.23
2019-03-11T11:31:06.858Z,88.44
2019-03-11T11:37:11.531Z,86.55
2019-03-11T11:43:18.132Z,85.46
2019-03-11T11:49:22.810Z,84.06
2019-03-11T11:55:27.608Z,84.26
2019-03-11T12:01:32.156Z,84.85
2019-03-11T12:07:36.810Z,83.97
2019-03-11T12:13:41.382Z,83.26
2019-03-11T12:19:46.343Z,82.06
2019-03-11T12:25:51.071Z,83.10
2019-03-11T12:31:55.930Z,82.80
2019-03-11T12:38:00.745Z,81.98
2019-03-11T12:44:05.519Z,80.93
2019-03-11T12:50:17.122Z,81.10
2019-03-11T12:56:21.868Z,82.48
2019-03-11T13:02:26.460Z,81.85
2019-03-11T13:08:30.993Z,80.42
2019-03-11T13:14:35.843Z,81.15
2019-03-11T13:20:41.040Z,80.13
2019-03-11T13:26:45.616Z,78.55
2019-03-11T13:32:50.521Z,79.51
2019-03-11T13:38:55.117Z,84.36
2019-03-11T13:44:59.744Z,88.39
2019-03-11T13:51:04.442Z,89.31
2019-03-11T13:57:09.246Z,91.45
2019-03-11T14:03:14.641Z,91.92
2019-03-11T14:09:19.554Z,92.11
2019-03-11T14:15:24.532Z,92.56
2019-03-11T14:21:29.092Z,93.35
2019-03-11T14:27:33.946Z,93.66
2019-03-11T14:33:38.929Z,92.70
2019-03-11T14:39:44.070Z,92.46
2019-03-11T14:45:49.301Z,93.14
2019-03-11T14:51:55.174Z,92.55
2019-03-11T14:58:01.038Z,90.32
2019-03-11T15:04:06.042Z,88.36
2019-03-11T15:10:15.460Z,85.86
2019-03-11T15:16:20.573Z,86.03
2019-03-11T15:22:25.521Z,84.19
2019-03-11T15:28:30.666Z,84.87
2019-03-11T15:34:35.195Z,84.74
2019-03-11T15:40:39.831Z,85.17
2019-03-11T15:46:44.803Z,84.80
2019-03-11T15:52:49.877Z,85.95
2019-03-11T15:58:54.634Z,85.29
2019-03-11T16:04:59.373Z,85.91
2019-03-11T16:11:04.152Z,87.37
2019-03-11T16:17:08.976Z,88.63
2019-03-11T16:23:14.073Z,89.60
2019-03-11T16:29:21.211Z,89.24
2019-03-11T16:35:28.007Z,89.72
2019-03-11T16:41:32.642Z,90.18
2019-03-11T16:47:37.343Z,91.03
2019-03-11T16:53:41.988Z,91.23
2019-03-11T16:59:46.878Z,91.53
2019-03-11T17:05:52.182Z,91.74
2019-03-11T17:11:57.000Z,90.24
2019-03-11T17:18:01.773Z,90.83
2019-03-11T17:24:06.480Z,90.85
2019-03-11T17:30:17.944Z,90.56
2019-03-11T17:36:22.848Z,91.24
2019-03-11T17:42:27.487Z,90.98
2019-03-11T17:48:32.198Z,90.76
2019-03-11T17:54:36.965Z,89.23
2019-03-11T18:00:54.544Z,88.50
2019-03-11T18:06:50.111Z,88.98
2019-03-11T18:12:54.746Z,89.04
2019-03-11T18:18:59.356Z,89.91
2019-03-11T18:25:04.484Z,89.39
2019-03-11T18:31:09.032Z,89.90
2019-03-11T18:37:14.065Z,91.10
2019-03-11T18:43:21.050Z,92.70
2019-03-11T18:49:25.391Z,95.02
2019-03-11T18:55:30.173Z,96.43
2019-03-11T19:01:34.968Z,97.29
2019-03-11T19:07:39.717Z,97.93
2019-03-11T19:13:45.580Z,98.90
2019-03-11T19:19:50.453Z,99.26
2019-03-11T19:25:55.402Z,99.93
2019-03-11T19:32:00.151Z,100.00
2019-03-11T19:38:04.972Z,100.00
2019-03-11T19:44:09.601Z,100.00
2019-03-11T19:50:18.954Z,99.18
2019-03-11T19:56:23.800Z,98.75
2019-03-11T20:02:28.478Z,97.41
2019-03-11T20:08:33.180Z,95.74
2019-03-11T20:14:38.042Z,93.20
2019-03-11T20:20:42.779Z,94.03
2019-03-11T20:26:48.152Z,93.97
2019-03-11T20:32:52.852Z,91.92
2019-03-11T20:38:57.481Z,91.59
2019-03-11T20:45:02.309Z,92.15
2019-03-11T20:51:07.056Z,91.33
2019-03-11T20:57:11.987Z,91.62
2019-03-11T21:03:17.393Z,91.02
2019-03-11T21:09:22.276Z,91.12
2019-03-11T21:15:27.023Z,90.23
2019-03-11T21:21:31.750Z,88.47
2019-03-11T21:27:36.342Z,88.81
2019-03-11T21:33:41.442Z,87.38
2019-03-11T21:39:46.523Z,87.53
2019-03-11T21:45:51.466Z,88.26
2019-03-11T21:51:56.581Z,88.58
2019-03-11T21:58:12.664Z,86.52
2019-03-11T22:04:07.636Z,86.11
2019-03-11T22:10:18.009Z,83.69
2019-03-11T22:16:22.652Z,83.70
2019-03-11T22:22:27.412Z,84.19
2019-03-11T22:28:32.133Z,85.31
2019-03-11T22:34:37.067Z,85.56
2019-03-11T22:40:41.665Z,84.39
2019-03-11T22:46:47.138Z,83.29
2019-03-11T22:52:52.240Z,84.31
2019-03-11T22:58:57.111Z,85.06
2019-03-11T23:05:02.093Z,85.91
2019-03-11T23:11:06.987Z,86.55
2019-03-11T23:17:11.838Z,87.13
2019-03-11T23:23:17.829Z,86.72
2019-03-11T23:29:22.437Z,87.24
2019-03-11T23:35:27.120Z,87.64
2019-03-11T23:41:31.729Z,88.00
2019-03-11T23:47:36.606Z,88.56
2019-03-11T23:53:41.356Z,89.59
2019-03-11T23:59:46.781Z,90.13
